Time;durP1;ratioP1;P1;durP2;ratioP2;P2;SDS_P1;SDS_P2;PMS_P1;PMS_P2;Temp;Humidity;BMP_temperature;BMP_pressure;BME280_temperature;BME280_humidity;BME280_pressure;Samples;Min_cycle;Max_cycle;Signal;HPM_P1;HPM_P2
2023/10/02 00:02:06;;;;;;;10.75;4.65;;;;;;;21.23;53.86;101037.19;5033041;28;20029;-41
2023/10/02 00:04:34;;;;;;;6.60;4.88;;;;;;;21.38;54.53;101042.69;5032955;28;20025;-41
2023/10/02 00:07:06;;;;;;;8.20;4.25;;;;;;;21.38;52.85;101042.69;5032810;28;20055;-41
2023/10/02 00:09:34;;;;;;;8.23;4.78;;;;;;;21.04;52.44;101047.78;5032936;28;20025;-40
2023/10/02 00:12:14;;;;;;;9.20;4.70;;;;;;;21.08;53.95;101051.59;5032672;28;20117;-40
2023/10/02 00:14:44;;;;;;;6.13;4.13;;;;;;;20.88;53.26;101049.69;5032916;28;20026;-41
2023/10/02 00:17:14;;;;;;;7.88;4.78;;;;;;;20.71;54.67;101049.94;5032554;28;20022;-41
2023/10/02 00:19:46;;;;;;;7.43;4.88;;;;;;;20.54;54.97;101042.00;5033224;28;20017;-41
2023/10/02 00:22:53;;;;;;;8.60;4.70;;;;;;;20.48;55.11;101042.22;5032511;28;20116;-41
2023/10/02 00:25:17;;;;;;;6.68;4.13;;;;;;;20.27;55.82;101046.75;5028882;28;20109;-41
2023/10/02 00:27:48;;;;;;;8.27;4.53;;;;;;;20.19;55.58;101052.69;5032949;28;20029;-40
2023/10/02 00:30:16;;;;;;;10.80;4.78;;;;;;;20.12;55.17;101042.06;5032859;28;20540;-40
2023/10/02 00:32:47;;;;;;;7.97;4.50;;;;;;;20.00;55.12;101047.72;5032878;28;20045;-41
2023/10/02 00:35:14;;;;;;;13.20;5.32;;;;;;;19.86;56.75;101049.25;5032961;28;20030;-41
2023/10/02 00:37:47;;;;;;;5.57;4.10;;;;;;;19.95;55.00;101057.75;5032556;28;20057;-40
2023/10/02 00:40:22;;;;;;;7.90;3.97;;;;;;;19.82;55.67;101058.19;5032403;28;20053;-40
2023/10/02 00:42:55;;;;;;;7.68;4.75;;;;;;;19.91;56.76;101064.78;5032705;28;20512;-40
2023/10/02 00:45:38;;;;;;;8.70;4.93;;;;;;;19.82;57.36;101058.19;5032432;28;20033;-40
2023/10/02 00:48:28;;;;;;;12.25;5.43;;;;;;;19.85;57.24;101061.19;5032729;28;20021;-40
2023/10/02 00:51:05;;;;;;;11.48;5.55;;;;;;;19.81;58.58;101056.56;5032366;28;20033;-41
2023/10/02 00:53:41;;;;;;;14.20;6.20;;;;;;;19.62;58.63;101056.16;5036288;28;20458;-41
2023/10/02 00:56:21;;;;;;;9.55;5.57;;;;;;;19.50;59.44;101059.84;5036303;28;20386;-41
2023/10/02 00:58:54;;;;;;;11.05;5.82;;;;;;;19.56;59.15;101058.00;5036312;28;20450;-40
2023/10/02 01:01:34;;;;;;;10.70;5.82;;;;;;;19.37;59.92;101056.75;5036287;28;20024;-39
2023/10/02 01:04:24;;;;;;;10.82;6.10;;;;;;;19.38;60.18;101064.66;5036260;28;20029;-41
2023/10/02 01:07:04;;;;;;;13.07;6.18;;;;;;;19.27;60.53;101062.94;5036054;28;20041;-40
2023/10/02 01:09:34;;;;;;;13.10;6.32;;;;;;;19.09;62.41;101069.53;5036141;28;20390;-41
2023/10/02 01:12:00;;;;;;;12.25;6.13;;;;;;;19.13;61.99;101070.66;5035952;28;20030;-40
2023/10/02 01:17:16;;;;;;;16.13;6.35;;;;;;;19.02;63.63;101079.78;5036039;28;20448;-40
2023/10/02 01:19:53;;;;;;;17.70;7.38;;;;;;;18.89;64.11;101091.03;5035761;28;20029;-40
2023/10/02 01:22:31;;;;;;;20.00;7.13;;;;;;;18.85;64.82;101098.84;5035884;28;20040;-39
2023/10/02 01:25:18;;;;;;;20.40;7.10;;;;;;;18.59;66.09;101100.41;5035667;28;20029;-40
2023/10/02 01:27:50;;;;;;;16.80;7.80;;;;;;;18.53;67.35;101098.72;5035588;28;20026;-40
2023/10/02 01:30:21;;;;;;;20.27;7.95;;;;;;;18.35;67.99;101104.47;5035396;28;20099;-40
2023/10/02 01:35:57;;;;;;;16.55;7.88;;;;;;;18.44;68.44;101105.69;5035696;28;20386;-40
2023/10/02 01:38:35;;;;;;;22.70;8.80;;;;;;;18.01;71.00;101109.97;5035224;28;20056;-40
2023/10/02 01:41:06;;;;;;;13.95;8.45;;;;;;;18.01;71.14;101112.66;5035497;28;20061;-39
2023/10/02 01:43:44;;;;;;;19.95;8.35;;;;;;;17.96;71.05;101109.88;5035240;28;20575;-40
2023/10/02 01:46:17;;;;;;;18.73;8.60;;;;;;;17.84;71.32;101111.88;5035348;28;20030;-39
2023/10/02 01:48:44;;;;;;;15.93;6.75;;;;;;;17.81;71.64;101104.22;5035053;28;20041;-40
2023/10/02 01:51:16;;;;;;;17.30;7.50;;;;;;;17.82;72.04;101111.28;5035059;28;20029;-39
2023/10/02 01:53:43;;;;;;;19.35;7.78;;;;;;;17.41;74.07;101110.59;5035164;28;20024;-39
2023/10/02 01:56:15;;;;;;;20.30;7.43;;;;;;;17.38;74.21;101116.53;5035439;28;20078;-39
2023/10/02 01:58:42;;;;;;;14.90;6.93;;;;;;;17.44;73.50;101120.13;5035115;28;20030;-39
2023/10/02 02:01:09;;;;;;;16.67;7.35;;;;;;;17.28;74.48;101122.56;5017604;28;20025;-39
2023/10/02 02:03:48;;;;;;;16.98;7.78;;;;;;;17.13;75.06;101119.56;5034978;28;20114;-39
2023/10/02 02:06:22;;;;;;;13.23;7.68;;;;;;;17.07;76.21;101126.78;5035015;28;20175;-39
2023/10/02 02:08:53;;;;;;;14.15;6.72;;;;;;;17.10;76.84;101130.88;5035181;28;20032;-39
2023/10/02 02:11:21;;;;;;;14.60;7.07;;;;;;;17.05;76.64;101120.78;5034928;28;20232;-40
2023/10/02 02:13:52;;;;;;;15.30;7.35;;;;;;;17.08;76.91;101133.81;5034666;28;20034;-39
2023/10/02 02:16:21;;;;;;;15.10;7.57;;;;;;;16.99;77.31;101138.00;5034891;28;20143;-39
2023/10/02 02:18:50;;;;;;;16.35;6.75;;;;;;;17.09;76.93;101140.06;5034825;28;20029;-39
2023/10/02 02:21:19;;;;;;;12.23;6.53;;;;;;;16.99;77.80;101147.97;5034673;28;20478;-39
2023/10/02 02:23:46;;;;;;;17.67;7.70;;;;;;;16.75;78.62;101149.94;5034572;28;20432;-39
2023/10/02 02:26:22;;;;;;;10.02;6.57;;;;;;;16.64;78.87;101146.16;5034623;28;20099;-39
2023/10/02 02:28:51;;;;;;;16.80;6.80;;;;;;;16.45;80.07;101145.50;5034958;28;20104;-39
2023/10/02 02:31:31;;;;;;;10.35;6.55;;;;;;;16.63;79.53;101158.84;5034407;28;20040;-39
2023/10/02 02:34:14;;;;;;;10.93;6.35;;;;;;;16.50;80.14;101163.72;5034684;28;20030;-39
2023/10/02 02:36:42;;;;;;;10.68;6.50;;;;;;;16.66;78.92;101162.13;5034265;28;20055;-39
2023/10/02 02:39:15;;;;;;;13.60;6.45;;;;;;;16.47;80.26;101164.16;5016394;28;20037;-39
2023/10/02 02:42:18;;;;;;;12.45;7.22;;;;;;;16.31;80.82;101165.72;5034520;28;20378;-39
2023/10/02 02:44:49;;;;;;;14.75;6.63;;;;;;;16.41;80.34;101159.72;5034128;28;20034;-40
2023/10/02 02:47:18;;;;;;;12.68;6.43;;;;;;;16.42;79.89;101159.47;5034133;28;20032;-39
2023/10/02 02:49:48;;;;;;;10.40;6.20;;;;;;;16.30;80.68;101164.88;5034110;28;20032;-40
2023/10/02 02:52:17;;;;;;;12.23;7.13;;;;;;;16.18;81.71;101160.56;5034366;28;20071;-40
2023/10/02 02:54:45;;;;;;;14.20;6.70;;;;;;;16.30;80.95;101169.47;5034039;28;20025;-39
2023/10/02 02:57:14;;;;;;;11.40;6.15;;;;;;;16.33;80.85;101169.00;5034089;28;20026;-39
2023/10/02 02:59:40;;;;;;;9.60;6.28;;;;;;;16.14;81.27;101173.69;5034110;28;20083;-41
2023/10/02 03:02:09;;;;;;;9.18;6.65;;;;;;;16.14;81.55;101172.88;5034593;28;20457;-39
2023/10/02 03:04:40;;;;;;;11.02;7.07;;;;;;;16.03;82.48;101174.53;5034445;28;20387;-40
2023/10/02 03:07:18;;;;;;;10.63;6.70;;;;;;;16.05;82.71;101175.94;5033947;28;20021;-40
2023/10/02 03:09:45;;;;;;;11.68;6.57;;;;;;;16.12;82.29;101180.41;5033869;28;20018;-39
2023/10/02 03:12:11;;;;;;;11.18;7.03;;;;;;;16.18;81.97;101182.16;5033719;28;20032;-39
2023/10/02 03:14:38;;;;;;;11.43;7.20;;;;;;;16.16;82.08;101185.09;5033178;28;20056;-39
2023/10/02 03:17:28;;;;;;;10.98;6.97;;;;;;;16.23;81.82;101193.91;5033785;28;20092;-39
2023/10/02 03:19:58;;;;;;;8.73;6.43;;;;;;;16.06;82.59;101187.56;5033668;28;20021;-40
2023/10/02 03:22:24;;;;;;;12.18;6.18;;;;;;;16.06;82.38;101188.38;5033709;28;20025;-40
2023/10/02 03:24:53;;;;;;;11.27;6.75;;;;;;;15.85;83.23;101194.34;5033588;28;20049;-41
2023/10/02 03:27:21;;;;;;;13.13;7.82;;;;;;;15.80;83.14;101184.22;5033727;28;20100;-39
2023/10/02 03:29:51;;;;;;;12.45;7.55;;;;;;;15.78;83.50;101190.94;5033405;28;20056;-40
2023/10/02 03:32:18;;;;;;;17.83;7.43;;;;;;;15.95;82.88;101189.19;5033711;28;20040;-39
2023/10/02 03:34:48;;;;;;;9.40;6.43;;;;;;;16.04;82.45;101193.19;5033514;28;20080;-39
2023/10/02 03:37:15;;;;;;;10.63;7.28;;;;;;;15.92;82.50;101186.94;5033463;28;20026;-40
2023/10/02 03:42:22;;;;;;;11.90;6.72;;;;;;;15.94;82.36;101187.56;5033331;28;20029;-40
2023/10/02 03:44:50;;;;;;;9.73;5.90;;;;;;;15.91;82.72;101188.00;5033316;28;20021;-39
2023/10/02 03:47:18;;;;;;;8.65;6.82;;;;;;;15.75;83.53;101188.69;5033342;28;20026;-39
2023/10/02 03:49:44;;;;;;;10.23;6.18;;;;;;;15.84;82.77;101187.31;5033101;28;20033;-39
2023/10/02 03:52:14;;;;;;;10.95;7.22;;;;;;;15.95;82.72;101197.28;5033274;28;20077;-39
2023/10/02 03:54:43;;;;;;;12.20;6.40;;;;;;;15.94;82.43;101197.53;5033602;28;20029;-40
2023/10/02 03:57:59;;;;;;;11.15;7.30;;;;;;;15.99;81.78;101200.34;5033425;28;20116;-39
2023/10/02 03:59:57;;;;;;;11.18;6.82;;;;;;;15.78;82.20;101207.13;5021671;28;20079;-40
2023/10/02 04:02:26;;;;;;;8.77;6.75;;;;;;;15.74;81.94;101206.75;5033118;28;20478;-40
2023/10/02 04:04:52;;;;;;;10.10;6.65;;;;;;;15.60;82.17;101216.06;5033142;28;20037;-40
2023/10/02 04:07:20;;;;;;;9.70;7.05;;;;;;;15.67;81.90;101214.13;5032684;28;20032;-39
2023/10/02 04:09:55;;;;;;;9.77;6.15;;;;;;;15.57;82.31;101211.97;5033136;28;20033;-39
2023/10/02 04:12:22;;;;;;;10.20;6.32;;;;;;;15.58;81.66;101210.91;5032575;28;20449;-39
2023/10/02 04:14:48;;;;;;;10.85;6.60;;;;;;;15.56;81.01;101210.31;5032431;28;20026;-40
2023/10/02 04:19:51;;;;;;;15.07;6.32;;;;;;;15.33;78.77;101218.34;5033524;28;20126;-39
2023/10/02 04:22:22;;;;;;;8.23;5.60;;;;;;;15.18;77.85;101220.59;5031721;28;20049;-39
2023/10/02 04:24:58;;;;;;;7.57;5.07;;;;;;;15.35;77.04;101215.41;5032679;28;20514;-38
2023/10/02 04:33:07;;;;;;;9.25;5.70;;;;;;;15.32;74.61;101224.75;5036799;28;20025;-39
2023/10/02 04:35:46;;;;;;;9.05;5.07;;;;;;;15.19;74.26;101224.94;5036817;28;20045;-39
2023/10/02 04:38:47;;;;;;;7.00;5.00;;;;;;;14.93;75.05;101229.59;5036901;28;20060;-39
2023/10/02 04:41:05;;;;;;;9.15;4.70;;;;;;;14.77;75.17;101235.59;5036582;28;20116;-39
2023/10/02 04:43:34;;;;;;;6.22;4.45;;;;;;;14.95;74.54;101241.00;5036846;28;20033;-39
2023/10/02 04:46:08;;;;;;;6.72;4.60;;;;;;;14.72;74.90;101241.66;5036349;28;20029;-39
2023/10/02 04:48:42;;;;;;;8.30;4.50;;;;;;;14.67;75.34;101254.16;5036157;28;20033;-40
2023/10/02 04:51:11;;;;;;;6.50;4.35;;;;;;;14.65;75.14;101250.84;5036670;28;20029;-40
2023/10/02 04:53:42;;;;;;;8.35;4.57;;;;;;;14.45;75.89;101251.84;5036623;28;20075;-39
2023/10/02 04:56:21;;;;;;;10.15;5.47;;;;;;;14.35;76.18;101254.22;5036505;28;20066;-40
2023/10/02 04:58:51;;;;;;;5.00;4.05;;;;;;;14.44;75.51;101250.19;5037230;28;20034;-40
2023/10/02 05:01:34;;;;;;;7.60;4.40;;;;;;;14.48;75.44;101251.41;5036490;28;20022;-40
2023/10/02 05:04:06;;;;;;;6.03;4.05;;;;;;;14.55;75.28;101247.81;5036573;28;20022;-40
2023/10/02 05:09:38;;;;;;;6.00;4.32;;;;;;;14.66;74.49;101245.25;5002718;28;20447;-40
2023/10/02 05:12:06;;;;;;;4.13;3.47;;;;;;;14.57;74.38;101249.28;5036018;28;20442;-40
2023/10/02 05:14:34;;;;;;;6.22;4.30;;;;;;;14.53;74.75;101245.38;5035877;28;20378;-40
2023/10/02 05:17:19;;;;;;;7.03;4.45;;;;;;;14.49;74.48;101236.06;5036126;28;20021;-40
2023/10/02 05:20:04;;;;;;;7.22;4.47;;;;;;;14.49;74.30;101244.16;5036128;28;20022;-38
2023/10/02 05:22:36;;;;;;;4.97;4.10;;;;;;;14.48;74.45;101243.34;5035964;28;20123;-38
2023/10/02 05:25:07;;;;;;;5.95;4.32;;;;;;;14.46;74.54;101240.03;5035819;28;20290;-39
2023/10/02 05:27:37;;;;;;;5.90;3.90;;;;;;;14.41;74.83;101244.41;5035803;28;20025;-38
2023/10/02 05:30:12;;;;;;;4.75;3.55;;;;;;;14.45;74.77;101243.75;5036011;28;20512;-38
2023/10/02 05:32:40;;;;;;;7.50;4.60;;;;;;;14.35;74.99;101246.13;5036007;28;20441;-39
2023/10/02 05:37:43;;;;;;;5.65;3.97;;;;;;;14.08;76.04;101242.84;5035318;28;20374;-38
2023/10/02 05:50:56;;;;;;;9.15;4.13;;;;;;;13.77;77.21;101262.53;5035685;28;20409;-39
2023/10/02 05:53:34;;;;;;;5.10;3.40;;;;;;;13.79;77.02;101249.69;5035357;28;20030;-39
2023/10/02 05:58:39;;;;;;;3.80;3.20;;;;;;;13.94;76.37;101255.59;5035233;28;20029;-37
2023/10/02 06:01:16;;;;;;;10.80;4.18;;;;;;;13.93;76.24;101240.44;5034925;28;20047;-40
2023/10/02 06:03:43;;;;;;;4.63;3.20;;;;;;;13.96;75.52;101245.41;5035117;28;20474;-39
2023/10/02 06:06:21;;;;;;;4.80;3.65;;;;;;;13.87;76.06;101241.31;5034951;28;20040;-39
2023/10/02 06:09:03;;;;;;;4.55;3.55;;;;;;;13.76;75.94;101252.78;5035104;28;20493;-39
2023/10/02 06:11:33;;;;;;;6.30;3.70;;;;;;;13.77;76.01;101250.91;5034929;28;20355;-39
2023/10/02 06:14:10;;;;;;;5.65;3.65;;;;;;;13.79;75.65;101243.47;5035070;28;20487;-40
2023/10/02 06:16:39;;;;;;;5.32;3.17;;;;;;;13.65;76.07;101242.72;5034884;28;20041;-39
2023/10/02 06:19:07;;;;;;;4.25;3.20;;;;;;;13.60;76.17;101239.84;5034723;28;20111;-39
2023/10/02 06:21:47;;;;;;;7.88;4.10;;;;;;;13.51;76.53;101247.38;5034828;28;20152;-39
2023/10/02 06:24:18;;;;;;;7.97;4.40;;;;;;;13.62;76.20;101245.84;5034665;28;20026;-39
2023/10/02 06:27:28;;;;;;;4.93;3.30;;;;;;;13.62;75.82;101254.75;5034813;28;20025;-40
2023/10/02 06:29:35;;;;;;;6.03;3.53;;;;;;;13.65;75.65;101258.84;5026435;28;20397;-39
2023/10/02 06:32:05;;;;;;;5.63;3.30;;;;;;;13.62;75.78;101265.50;5034541;28;20021;-39
2023/10/02 06:34:39;;;;;;;4.57;3.35;;;;;;;13.45;76.36;101259.81;5034596;28;20167;-39
2023/10/02 06:37:07;;;;;;;5.43;3.65;;;;;;;13.29;76.75;101260.28;5034415;28;20351;-38
2023/10/02 06:39:37;;;;;;;3.58;3.17;;;;;;;13.33;76.90;101266.91;5034351;28;20030;-38
2023/10/02 06:42:05;;;;;;;4.47;3.00;;;;;;;13.32;76.85;101272.47;5034212;28;20029;-38
2023/10/02 06:47:30;;;;;;;6.50;3.42;;;;;;;13.26;77.10;101266.09;5021119;28;20026;-38
2023/10/02 06:50:55;;;;;;;5.07;3.45;;;;;;;13.20;77.51;101267.72;5033702;28;20416;-40
2023/10/02 06:52:45;;;;;;;4.90;3.53;;;;;;;13.41;76.38;101266.63;5026785;28;20037;-39
2023/10/02 06:55:11;;;;;;;3.75;3.22;;;;;;;13.35;76.80;101270.19;5034328;28;20099;-39
2023/10/02 06:57:49;;;;;;;4.07;2.85;;;;;;;13.38;76.89;101274.28;5033969;28;20018;-40
2023/10/02 07:00:36;;;;;;;5.00;3.42;;;;;;;13.28;77.45;101265.91;5034065;28;20025;-39
2023/10/02 07:03:03;;;;;;;4.70;3.15;;;;;;;13.22;77.65;101264.88;5033929;28;20033;-39
2023/10/02 07:05:33;;;;;;;3.13;2.60;;;;;;;13.16;77.76;101266.53;5033864;28;20397;-38
2023/10/02 07:08:17;;;;;;;6.05;3.47;;;;;;;13.07;77.93;101262.41;5034097;28;20032;-39
2023/10/02 07:10:44;;;;;;;4.13;3.17;;;;;;;13.10;77.44;101259.31;5034144;28;20029;-39
2023/10/02 07:13:23;;;;;;;4.95;3.40;;;;;;;13.07;77.40;101262.41;5033911;28;20025;-39
2023/10/02 07:15:56;;;;;;;4.95;3.60;;;;;;;13.13;77.14;101266.13;5034311;28;20036;-39
2023/10/02 07:18:37;;;;;;;4.45;3.38;;;;;;;13.08;77.29;101263.22;5033751;28;20026;-42
2023/10/02 07:21:09;;;;;;;4.75;3.25;;;;;;;13.23;77.09;101263.00;5033728;28;20036;-38
2023/10/02 07:23:37;;;;;;;8.20;3.40;;;;;;;13.09;78.67;101262.19;5033922;28;20536;-38
2023/10/02 07:26:04;;;;;;;4.47;3.50;;;;;;;12.95;80.16;101264.94;5033578;28;20076;-38
2023/10/02 07:28:31;;;;;;;6.78;4.00;;;;;;;12.98;80.51;101257.47;5033415;28;20466;-39
2023/10/02 07:30:59;;;;;;;4.78;3.75;;;;;;;12.95;81.15;101264.94;5033489;28;20040;-39
2023/10/02 07:33:25;;;;;;;5.82;3.90;;;;;;;12.96;81.67;101268.44;5033463;28;20025;-39
2023/10/02 07:35:56;;;;;;;4.25;3.50;;;;;;;13.00;82.19;101266.16;5033481;28;20032;-39
2023/10/02 07:38:30;;;;;;;5.80;4.53;;;;;;;13.03;84.04;101263.03;5033329;28;20041;-40
2023/10/02 07:41:09;;;;;;;6.40;4.20;;;;;;;12.80;86.65;101272.41;5033419;28;20382;-39
2023/10/02 07:43:35;;;;;;;9.23;4.35;;;;;;;13.02;85.05;101275.66;5033400;28;20025;-38
2023/10/02 07:46:14;;;;;;;7.07;4.45;;;;;;;13.13;85.07;101275.00;5033346;28;20362;-40
2023/10/02 07:48:41;;;;;;;6.05;5.22;;;;;;;13.08;86.57;101271.28;5033593;28;20045;-40
2023/10/02 07:51:10;;;;;;;10.18;5.75;;;;;;;13.14;90.37;101271.25;5033168;28;20025;-39
2023/10/02 07:53:40;;;;;;;6.68;5.72;;;;;;;13.26;90.08;101265.25;5033197;28;20022;-39
2023/10/02 07:56:16;;;;;;;7.60;6.00;;;;;;;13.30;90.86;101266.50;5033615;28;20382;-39
2023/10/02 07:58:43;;;;;;;7.40;6.28;;;;;;;13.41;92.07;101272.03;5033300;28;20025;-40
2023/10/02 08:01:12;;;;;;;7.72;6.35;;;;;;;13.45;92.41;101280.50;5033179;28;20108;-40
2023/10/02 08:03:49;;;;;;;10.30;6.05;;;;;;;13.45;92.74;101267.06;5033536;28;20025;-39
2023/10/02 08:11:45;;;;;;;6.93;5.50;;;;;;;13.71;92.51;101279.50;5033627;28;20040;-38
2023/10/02 08:16:59;;;;;;;6.75;5.03;;;;;;;13.59;92.34;101281.25;5033373;28;20083;-39
2023/10/02 08:19:25;;;;;;;9.45;6.20;;;;;;;13.63;91.94;101287.84;5032831;28;20021;-38
2023/10/02 08:21:53;;;;;;;9.45;6.28;;;;;;;13.63;92.38;101280.59;5032781;28;20032;-38
2023/10/02 08:24:20;;;;;;;6.50;5.80;;;;;;;13.68;92.37;101280.78;5032692;28;20030;-38
2023/10/02 08:26:47;;;;;;;9.60;6.72;;;;;;;13.71;93.38;101285.75;5032681;28;20500;-38
2023/10/02 08:29:16;;;;;;;9.10;5.82;;;;;;;13.80;92.92;101290.84;5032705;28;20029;-38
2023/10/02 08:31:49;;;;;;;10.80;7.05;;;;;;;13.77;92.31;101288.59;5032548;28;20033;-38
2023/10/02 08:34:19;;;;;;;6.93;5.82;;;;;;;13.79;92.96;101289.22;5032562;28;20017;-38
2023/10/02 08:37:09;;;;;;;11.13;7.35;;;;;;;13.72;93.31;101289.25;5032655;28;20027;-38
2023/10/02 08:39:36;;;;;;;8.30;6.43;;;;;;;13.75;93.88;101286.13;5032555;28;20030;-37
2023/10/02 08:42:09;;;;;;;11.65;7.45;;;;;;;13.60;95.26;101294.50;5032630;28;20033;-38
2023/10/02 08:44:43;;;;;;;10.90;7.80;;;;;;;13.88;94.48;101285.19;5032488;28;20036;-38
2023/10/02 08:47:27;;;;;;;10.95;8.25;;;;;;;13.93;94.24;101290.75;5032539;28;20076;-38
2023/10/02 08:50:04;;;;;;;11.13;8.18;;;;;;;13.84;94.81;101292.91;5032587;28;20521;-38
2023/10/02 08:52:47;;;;;;;11.80;7.93;;;;;;;13.70;95.56;101304.75;5032533;28;20041;-39
2023/10/02 08:55:51;;;;;;;9.68;8.02;;;;;;;13.75;95.02;101302.25;5032672;28;20029;-37
2023/10/02 08:58:22;;;;;;;9.98;7.80;;;;;;;13.69;95.30;101298.56;5032343;28;20056;-38
2023/10/02 09:01:17;;;;;;;9.13;7.63;;;;;;;13.74;95.38;101298.75;5032365;28;20152;-38
2023/10/02 09:04:21;;;;;;;10.85;8.27;;;;;;;13.69;95.60;101284.28;5032432;28;20358;-38
2023/10/02 09:06:41;;;;;;;13.50;9.70;;;;;;;13.64;96.13;101293.00;5032603;28;20025;-39
2023/10/02 09:11:44;;;;;;;11.45;7.85;;;;;;;13.53;96.91;101291.00;5032377;28;20025;-39
2023/10/02 09:17:07;;;;;;;9.73;7.38;;;;;;;13.58;96.03;101296.56;5035973;28;20044;-39
2023/10/02 09:19:39;;;;;;;10.70;7.13;;;;;;;13.68;95.25;101298.78;5036163;28;20140;-39
2023/10/02 09:22:13;;;;;;;9.63;7.60;;;;;;;13.54;95.99;101294.50;5036257;28;20027;-38
2023/10/02 09:24:41;;;;;;;10.18;7.25;;;;;;;13.65;95.05;101289.25;5035818;28;20025;-39
2023/10/02 09:27:25;;;;;;;11.18;7.65;;;;;;;13.66;94.62;101287.44;5035905;28;20029;-39
2023/10/02 09:32:50;;;;;;;7.32;6.30;;;;;;;13.55;95.65;101286.25;5035760;28;20045;-39
2023/10/02 09:38:03;;;;;;;7.95;7.13;;;;;;;13.50;96.11;101290.63;5035715;28;20046;-39
2023/10/02 09:43:20;;;;;;;9.43;7.97;;;;;;;13.47;96.47;101283.78;5036246;28;20041;-39
2023/10/02 09:45:48;;;;;;;8.57;7.28;;;;;;;13.42;96.38;101276.34;5035280;28;20112;-39
2023/10/02 09:51:29;;;;;;;8.77;7.72;;;;;;;13.34;96.91;101279.28;5035356;28;20519;-39
2023/10/02 09:54:28;;;;;;;8.38;7.45;;;;;;;13.42;96.88;101287.09;5035260;28;20473;-39
2023/10/02 09:57:13;;;;;;;8.43;6.25;;;;;;;13.41;96.50;101277.41;5035299;28;20061;-39
2023/10/02 09:59:46;;;;;;;9.35;7.03;;;;;;;13.40;97.27;101272.25;5050603;28;20049;-39
2023/10/02 10:08:18;;;;;;;8.48;6.25;;;;;;;13.27;97.81;101273.13;5035089;28;20321;-39
2023/10/02 10:10:47;;;;;;;6.10;5.50;;;;;;;13.32;97.92;101273.28;5034661;28;20112;-39
2023/10/02 10:13:34;;;;;;;8.43;6.55;;;;;;;13.42;97.43;101275.53;5035049;28;20029;-39
2023/10/02 10:16:23;;;;;;;10.32;6.53;;;;;;;13.44;97.50;101274.28;5034815;28;20049;-39
2023/10/02 10:25:22;;;;;;;9.25;6.55;;;;;;;13.47;97.33;101268.47;5035127;28;20040;-38
2023/10/02 10:30:29;;;;;;;8.98;6.22;;;;;;;13.63;96.58;101255.56;5034640;28;20067;-38
2023/10/02 10:33:26;;;;;;;9.43;6.88;;;;;;;13.56;96.54;101250.22;5034570;28;20478;-38
2023/10/02 10:35:52;;;;;;;9.10;6.97;;;;;;;13.54;96.56;101264.91;5034620;28;20032;-39
2023/10/02 10:40:54;;;;;;;9.82;6.75;;;;;;;13.56;97.15;101255.63;5034572;28;20393;-38
2023/10/02 10:43:44;;;;;;;6.75;5.93;;;;;;;13.56;97.35;101254.78;5034625;28;20025;-38
2023/10/02 10:46:18;;;;;;;10.45;6.93;;;;;;;13.62;97.39;101259.31;5034573;28;20129;-39
2023/10/02 10:48:48;;;;;;;9.48;7.20;;;;;;;13.59;97.32;101260.53;5034392;28;20033;-39
2023/10/02 10:51:20;;;;;;;7.28;5.97;;;;;;;13.55;96.99;101263.88;5034140;28;20108;-38
2023/10/02 10:54:00;;;;;;;11.65;6.57;;;;;;;13.58;97.73;101264.28;5034149;28;20100;-38
2023/10/02 10:56:27;;;;;;;10.48;6.82;;;;;;;13.57;97.18;101256.44;5034166;28;20026;-38
2023/10/02 10:59:10;;;;;;;11.45;7.15;;;;;;;13.59;97.52;101257.03;5034059;28;20022;-38
2023/10/02 11:02:09;;;;;;;10.13;6.32;;;;;;;13.58;97.24;101268.84;5034267;28;20025;-39
2023/10/02 11:04:39;;;;;;;9.43;6.45;;;;;;;13.60;97.08;101264.06;5034033;28;20030;-39
2023/10/02 11:07:19;;;;;;;9.45;6.85;;;;;;;13.53;97.47;101266.78;5033905;28;20029;-39
2023/10/02 11:12:56;;;;;;;9.57;7.15;;;;;;;13.56;97.35;101268.25;5034165;28;20048;-39
2023/10/02 11:15:59;;;;;;;7.65;6.75;;;;;;;13.68;97.27;101269.19;5033725;28;20362;-40
2023/10/02 11:18:23;;;;;;;8.80;6.05;;;;;;;13.63;97.00;101271.72;5030654;28;20030;-40
2023/10/02 11:21:00;;;;;;;9.48;6.82;;;;;;;13.60;97.22;101267.59;5033805;28;20026;-39
2023/10/02 11:23:44;;;;;;;11.68;6.32;;;;;;;13.59;97.21;101273.16;5033601;28;20043;-39
2023/10/02 11:26:14;;;;;;;14.50;6.65;;;;;;;13.67;96.98;101256.78;5033572;28;20496;-48
2023/10/02 11:28:43;;;;;;;8.20;6.40;;;;;;;13.67;96.41;101262.19;5033854;28;20037;-40
2023/10/02 11:31:29;;;;;;;10.63;7.45;;;;;;;13.70;96.99;101265.22;5033480;28;20033;-39
2023/10/02 11:34:02;;;;;;;13.07;8.00;;;;;;;13.64;97.14;101265.28;5033874;28;20075;-42
2023/10/02 11:36:45;;;;;;;10.23;7.25;;;;;;;13.68;97.13;101269.19;5033230;28;20057;-40
2023/10/02 11:39:27;;;;;;;11.25;7.43;;;;;;;13.72;97.05;101273.13;5033195;28;20116;-39
2023/10/02 11:41:53;;;;;;;12.07;7.53;;;;;;;13.80;96.45;101275.53;5033452;28;20113;-40
2023/10/02 11:44:19;;;;;;;10.27;6.70;;;;;;;13.76;96.13;101268.94;5033323;28;20041;-40
2023/10/02 11:46:47;;;;;;;9.55;5.90;;;;;;;13.88;96.18;101275.28;5033146;28;20378;-40
2023/10/02 11:49:14;;;;;;;11.10;6.38;;;;;;;13.81;95.92;101270.97;5033213;28;20434;-40
2023/10/02 11:51:42;;;;;;;9.05;6.75;;;;;;;13.94;95.11;101273.59;5033310;28;20057;-40
2023/10/02 11:54:13;;;;;;;9.38;6.18;;;;;;;13.84;95.66;101273.25;5033135;28;20025;-39
2023/10/02 11:56:39;;;;;;;10.52;6.93;;;;;;;13.78;96.20;101277.63;5032941;28;20021;-39
2023/10/02 11:59:07;;;;;;;12.85;7.78;;;;;;;13.63;96.48;101277.91;5032843;28;20536;-40
2023/10/02 12:01:34;;;;;;;11.85;8.10;;;;;;;13.67;97.15;101279.13;5032796;28;20036;-40
2023/10/02 12:04:04;;;;;;;10.80;7.15;;;;;;;13.69;97.04;101278.91;5032884;28;20026;-39
2023/10/02 12:06:30;;;;;;;12.50;8.25;;;;;;;13.74;96.55;101274.53;5033136;28;20029;-38
2023/10/02 12:08:58;;;;;;;13.57;8.68;;;;;;;13.76;96.87;101270.78;5032820;28;20021;-38
2023/10/02 12:11:25;;;;;;;11.77;8.20;;;;;;;13.71;96.92;101274.97;5032607;28;20117;-38
2023/10/02 12:13:52;;;;;;;13.45;9.10;;;;;;;13.77;96.81;101272.44;5032582;28;20439;-40
2023/10/02 12:16:21;;;;;;;11.82;9.10;;;;;;;13.63;97.79;101277.91;5032715;28;20017;-39
2023/10/02 12:18:51;;;;;;;12.75;9.23;;;;;;;13.65;97.55;101281.19;5032396;28;20030;-39
2023/10/02 12:21:21;;;;;;;14.32;9.05;;;;;;;13.69;97.06;101293.19;5032841;28;20442;-40
2023/10/02 12:23:49;;;;;;;10.05;7.15;;;;;;;13.74;96.44;101281.78;5032764;28;20466;-40
2023/10/02 12:26:17;;;;;;;8.00;7.05;;;;;;;13.68;96.95;101296.09;5032587;28;20061;-39
2023/10/02 12:28:44;;;;;;;10.60;6.60;;;;;;;13.71;96.63;101307.25;5032691;28;20076;-39
2023/10/02 12:31:15;;;;;;;7.68;6.70;;;;;;;13.76;96.12;101303.06;5032530;28;20117;-39
2023/10/02 12:33:42;;;;;;;9.75;7.63;;;;;;;13.73;95.93;101297.09;5032456;28;20029;-39
2023/10/02 12:36:14;;;;;;;8.10;7.20;;;;;;;13.82;95.58;101302.22;5032399;28;20147;-39
2023/10/02 12:38:42;;;;;;;11.75;7.75;;;;;;;13.76;95.91;101298.53;5032304;28;20486;-39
2023/10/02 12:41:12;;;;;;;9.70;7.45;;;;;;;13.77;95.93;101300.19;5032624;28;20045;-39
2023/10/02 12:43:39;;;;;;;11.90;7.00;;;;;;;13.78;95.84;101301.84;5032232;28;20147;-39
2023/10/02 12:46:06;;;;;;;7.18;6.05;;;;;;;13.82;96.06;101299.53;5032265;28;20037;-41
2023/10/02 12:48:33;;;;;;;8.80;6.18;;;;;;;13.85;95.73;101302.63;5034751;28;20022;-42
2023/10/02 12:51:06;;;;;;;14.63;7.32;;;;;;;13.78;96.54;101307.22;5036449;28;20029;-46
2023/10/02 12:53:36;;;;;;;10.35;6.80;;;;;;;13.73;96.47;101307.88;5036314;28;20636;-37
2023/10/02 12:56:10;;;;;;;11.65;6.95;;;;;;;13.72;96.46;101314.28;5036582;28;20021;-38
2023/10/02 12:58:36;;;;;;;12.65;7.80;;;;;;;13.67;96.99;101314.09;5036356;28;20029;-37
2023/10/02 13:01:03;;;;;;;10.05;6.55;;;;;;;13.76;97.13;101327.28;5036351;28;20021;-37
2023/10/02 13:03:32;;;;;;;8.07;6.28;;;;;;;13.79;96.50;101327.69;5036357;28;20343;-37
2023/10/02 13:06:01;;;;;;;7.93;5.70;;;;;;;13.84;96.37;101327.88;5036395;28;20021;-41
2023/10/02 13:08:29;;;;;;;9.18;5.90;;;;;;;13.77;95.91;101319.03;5036060;28;20029;-44
2023/10/02 13:10:56;;;;;;;12.32;6.60;;;;;;;13.86;95.54;101325.78;5035892;28;20366;-41
2023/10/02 13:13:22;;;;;;;8.52;6.32;;;;;;;13.91;94.84;101327.84;5036465;28;20026;-41